TFM - Tactical Decision Aid (Experimental) INFO Settings
ID: Runway Winds: CIG/VIS Threshold: METAR Board: Map:

KDFW - Dallas/Fort Worth Intl

Updated at: 0349 UTC 27 Sep 2016
Latest TAF at: 0255 UTC 27 Sep 2016

TAF Board

Time0253Z27/04Z27/05Z27/06Z27/07Z27/08Z27/09Z27/10Z27/11Z27/12Z27/13Z27/14Z27/15Z27/16Z
TypeOBSPRVLPRVLPRVLPRVLPRVLPRVLPRVLPRVLPRVLPRVLPRVLPRVLPRVL
VIS10>6>6>6>6>6>6>6>6>6>6>6>6>6
CIG5080808080808080808080808080
CoverOVCBKNBKNBKNBKNBKNBKNBKNBKNBKNBKNBKNBKNBKN
FltCatVFRVFRVFRVFRVFRVFRVFRVFRVFRVFRVFRVFRVFRVFR
WX----------------------------
WDir1010101010101010101010101010
WSpd68888888888888
WGst----------------------------
TAF
KDFW 270255Z 2703/2806 01008KT P6SM BKN080
  FM272200 02006KT P6SM SKC


METAR
KDFW 270253Z 01006KT 10SM BKN050 OVC080 20/16 A3014 RMK AO2 SLP200 T02000156 51009

TAF/METAR Board Legend

Potential Impact
  None Marginal Slight Moderate High
Visibility (sm) >5 3≤X≤5 1≤X<3 0.5≤X<1 <0.5
Ceiling (100 ft) >30 10≤X≤30 4≤X<10 2≤X<4 <2
Wind Speed (kt) <10 10≤X<20 20≤X<30 ≥30
Wind Gust (kt) <15 15≤X<25 25≤X<35 ≥35
Weather No Wx Reported VCTS -TS,-FZRA TS,FZRA +TS,+FZRA




Page loaded:  03:49 UTC  |   08:49 PM Pacific  |   09:49 PM Mountain  |   10:49 PM Central  |   11:49 PM Eastern